Time;durP1;ratioP1;P1;durP2;ratioP2;P2;SDS_P1;SDS_P2;PMS_P1;PMS_P2;Temp;Humidity;BMP_temperature;BMP_pressure;BME280_temperature;BME280_humidity;BME280_pressure;Samples;Min_cycle;Max_cycle;Signal;HPM_P1;HPM_P2
2022/06/07 00:00:18;;;;;;;7.82;5.25;;;;;;;18.71;100.00;-24337.84;5056878;28;20645;-56
2022/06/07 00:02:46;;;;;;;10.50;5.65;;;;;;;18.81;100.00;-24340.63;5053894;28;20189;-55
2022/06/07 00:05:12;;;;;;;8.15;4.70;;;;;;;18.49;100.00;-24332.00;5057071;28;20196;-58
2022/06/07 00:07:37;;;;;;;7.55;5.05;;;;;;;18.49;100.00;-24331.84;5057348;28;20607;-56
2022/06/07 00:10:04;;;;;;;8.48;5.25;;;;;;;18.44;100.00;-24330.59;5055850;28;20170;-57
2022/06/07 00:12:30;;;;;;;9.40;5.82;;;;;;;18.72;100.00;-24338.13;5054481;28;20259;-57
2022/06/07 00:14:55;;;;;;;9.68;5.30;;;;;;;18.72;100.00;-24338.13;5053980;28;20174;-57
2022/06/07 00:17:21;;;;;;;9.50;5.65;;;;;;;18.28;100.00;-24326.00;5055797;28;20292;-56
2022/06/07 00:19:47;;;;;;;10.05;5.68;;;;;;;18.29;100.00;-24326.28;5055042;28;20209;-57
2022/06/07 00:22:13;;;;;;;7.45;5.38;;;;;;;18.43;100.00;-24330.31;5062136;28;20567;-55
2022/06/07 00:24:39;;;;;;;9.73;5.90;;;;;;;18.52;100.00;-24332.81;5068518;28;20186;-57
2022/06/07 00:27:06;;;;;;;9.13;4.95;;;;;;;18.78;100.00;-24339.78;5066297;28;20283;-56
2022/06/07 00:29:32;;;;;;;7.90;5.03;;;;;;;18.58;100.00;-24334.22;5069492;28;20270;-56
2022/06/07 00:31:59;;;;;;;8.88;4.85;;;;;;;18.83;100.00;-24341.19;5070331;28;20269;-54
2022/06/07 00:34:25;;;;;;;7.55;4.53;;;;;;;18.71;100.00;-24337.84;5069637;28;20567;-55
2022/06/07 00:36:50;;;;;;;7.75;5.10;;;;;;;18.75;100.00;-24338.97;5070564;28;20186;-56
2022/06/07 00:39:16;;;;;;;9.68;5.30;;;;;;;18.70;100.00;-24337.56;5069435;28;20213;-57
2022/06/07 00:41:42;;;;;;;7.72;4.85;;;;;;;18.67;100.00;-24336.88;5069873;28;20169;-54
2022/06/07 00:44:19;;;;;;;9.15;4.78;;;;;;;19.15;100.00;-24350.09;5070170;28;20541;-56
2022/06/07 00:46:45;;;;;;;6.78;4.25;;;;;;;19.05;100.00;-24347.19;5069460;28;20254;-57
2022/06/07 00:49:12;;;;;;;8.65;4.43;;;;;;;18.89;100.00;-24342.84;5069342;28;20253;-57
2022/06/07 00:51:39;;;;;;;6.93;4.15;;;;;;;18.88;100.00;-24342.56;5069906;28;20181;-56
2022/06/07 00:54:05;;;;;;;6.57;3.67;;;;;;;18.45;100.00;-24330.88;5065975;28;20182;-57
2022/06/07 00:56:31;;;;;;;5.40;3.60;;;;;;;18.50;100.00;-24332.28;5069156;28;20603;-57
2022/06/07 00:59:00;;;;;;;6.03;4.00;;;;;;;18.93;100.00;-24343.97;5070029;28;20201;-56
2022/06/07 01:01:27;;;;;;;4.80;3.70;;;;;;;18.78;100.00;-24339.78;5069265;28;20178;-56
2022/06/07 01:03:53;;;;;;;5.45;3.60;;;;;;;18.59;100.00;-24334.50;5070052;28;20176;-58
2022/06/07 01:11:47;;;;;;;7.65;3.80;;;;;;;18.94;100.00;-24344.25;5069699;28;20205;-57
2022/06/07 01:14:12;;;;;;;6.00;3.80;;;;;;;18.88;100.00;-24342.56;5069317;28;20181;-57
2022/06/07 01:16:38;;;;;;;5.22;3.53;;;;;;;18.92;100.00;-24343.69;5069816;28;20186;-55
2022/06/07 01:19:03;;;;;;;5.43;3.90;;;;;;;18.53;100.00;-24333.13;5069601;28;20216;-59
2022/06/07 01:21:32;;;;;;;5.43;3.50;;;;;;;18.70;100.00;-24337.56;5069010;28;20182;-56
2022/06/07 01:23:58;;;;;;;7.00;4.40;;;;;;;18.52;100.00;-24332.81;5069684;28;20174;-55
2022/06/07 01:26:23;;;;;;;6.03;4.20;;;;;;;18.63;100.00;-24335.63;5069114;28;20255;-58
2022/06/07 01:28:49;;;;;;;5.78;3.75;;;;;;;18.48;100.00;-24331.72;5070243;28;20192;-56
2022/06/07 01:31:14;;;;;;;5.50;4.13;;;;;;;18.76;100.00;-24339.38;5069237;28;20187;-56
2022/06/07 01:33:40;;;;;;;8.30;4.07;;;;;;;17.98;100.00;-24317.91;5069612;28;20182;-57
2022/06/07 01:36:11;;;;;;;5.55;4.07;;;;;;;18.51;100.00;-24332.56;5069674;28;20201;-57
2022/06/07 01:38:39;;;;;;;6.53;4.15;;;;;;;18.60;100.00;-24334.91;5072583;28;20202;-55
2022/06/07 01:43:50;;;;;;;8.70;3.78;;;;;;;18.43;100.00;-24330.31;5073758;28;20272;-57
2022/06/07 01:46:17;;;;;;;6.40;3.75;;;;;;;17.96;100.00;-24317.34;5072581;28;20273;-56
2022/06/07 01:48:43;;;;;;;5.70;3.97;;;;;;;18.51;100.00;-24332.41;5073035;28;20217;-55
2022/06/07 01:51:10;;;;;;;6.40;3.70;;;;;;;18.61;100.00;-24335.06;5072751;28;20937;-58
2022/06/07 01:53:36;;;;;;;6.88;4.28;;;;;;;18.62;100.00;-24335.47;5073057;28;20189;-54
2022/06/07 01:56:05;;;;;;;5.82;3.67;;;;;;;18.27;100.00;-24325.88;5073004;28;20190;-54
2022/06/07 01:58:31;;;;;;;6.32;4.18;;;;;;;18.36;100.00;-24328.38;5071923;28;20213;-56
2022/06/07 02:00:57;;;;;;;5.78;3.80;;;;;;;17.99;100.00;-24318.06;5072797;28;20177;-56
2022/06/07 02:03:22;;;;;;;8.68;4.40;;;;;;;17.78;100.00;-24312.34;5072136;28;20734;-57
2022/06/07 02:06:04;;;;;;;6.80;4.47;;;;;;;18.07;100.00;-24320.28;5072743;28;20180;-57
2022/06/07 02:08:30;;;;;;;7.53;4.60;;;;;;;18.08;100.00;-24320.72;5072115;28;20652;-57
2022/06/07 02:10:55;;;;;;;9.82;5.03;;;;;;;18.06;100.00;-24320.00;5073152;28;20264;-55
2022/06/07 02:13:22;;;;;;;7.82;4.85;;;;;;;17.92;100.00;-24316.09;5072330;28;20210;-55
2022/06/07 02:15:49;;;;;;;8.48;4.95;;;;;;;17.93;100.00;-24316.53;5072779;28;20633;-60
2022/06/07 02:18:15;;;;;;;7.07;4.53;;;;;;;17.63;100.00;-24308.28;5071984;28;20202;-57
2022/06/07 02:20:42;;;;;;;8.63;5.00;;;;;;;18.02;100.00;-24318.91;5071416;28;20178;-56
2022/06/07 02:23:08;;;;;;;5.95;4.22;;;;;;;17.82;100.00;-24313.31;5072390;28;20174;-56
2022/06/07 02:25:41;;;;;;;6.53;4.28;;;;;;;18.07;100.00;-24320.28;5073129;28;20184;-54
2022/06/07 02:28:09;;;;;;;9.15;4.57;;;;;;;17.71;100.00;-24310.38;5072443;28;20178;-58
2022/06/07 02:30:34;;;;;;;7.45;4.72;;;;;;;17.85;100.00;-24314.16;5071999;28;20170;-59
2022/06/07 02:33:00;;;;;;;7.65;4.65;;;;;;;17.90;100.00;-24315.69;5072221;28;20716;-58
2022/06/07 02:35:26;;;;;;;6.85;4.07;;;;;;;17.92;100.00;-24316.09;5071672;28;20599;-54
2022/06/07 02:37:51;;;;;;;6.00;4.47;;;;;;;18.04;100.00;-24319.44;5072033;28;20609;-57
2022/06/07 02:40:18;;;;;;;7.75;4.13;;;;;;;18.08;100.00;-24320.72;5069586;28;20195;-57
2022/06/07 02:42:43;;;;;;;7.22;4.43;;;;;;;18.18;100.00;-24323.22;5071980;28;20197;-56
2022/06/07 02:45:11;;;;;;;6.13;4.32;;;;;;;18.34;100.00;-24327.69;5071295;28;20186;-55
2022/06/07 02:47:36;;;;;;;8.70;4.75;;;;;;;18.21;100.00;-24324.19;5071118;28;20735;-57
2022/06/07 02:50:02;;;;;;;7.00;4.40;;;;;;;18.33;100.00;-24327.41;5071645;28;20178;-54
2022/06/07 02:52:28;;;;;;;9.45;5.43;;;;;;;18.29;100.00;-24326.28;5070873;28;20189;-56
2022/06/07 02:54:54;;;;;;;6.03;4.30;;;;;;;18.29;100.00;-24326.28;5072371;28;20177;-59
2022/06/07 02:57:19;;;;;;;7.57;4.63;;;;;;;18.56;100.00;-24333.81;5071806;28;20277;-58
2022/06/07 02:59:45;;;;;;;8.52;4.88;;;;;;;19.14;100.00;-24349.81;5072032;28;20246;-58
2022/06/07 03:02:11;;;;;;;6.93;4.38;;;;;;;18.89;100.00;-24343.00;5073407;28;20649;-59
2022/06/07 03:04:37;;;;;;;7.63;4.95;;;;;;;18.91;100.00;-24343.56;5072288;28;20189;-55
2022/06/07 03:07:04;;;;;;;6.65;4.25;;;;;;;19.00;100.00;-24345.91;5072716;28;20182;-57
2022/06/07 03:09:31;;;;;;;8.10;5.10;;;;;;;18.81;100.00;-24340.78;5071366;28;20542;-57
2022/06/07 03:12:17;;;;;;;8.52;4.47;;;;;;;18.65;100.00;-24336.31;5071499;28;20170;-56
2022/06/07 03:15:17;;;;;;;7.47;4.45;;;;;;;18.63;100.00;-24335.63;5070601;28;20182;-57
2022/06/07 03:17:56;;;;;;;7.80;4.55;;;;;;;18.27;100.00;-24325.72;5069562;28;20182;-57
2022/06/07 03:20:29;;;;;;;7.22;4.70;;;;;;;18.65;100.00;-24336.19;5069921;28;20186;-57
2022/06/07 03:23:05;;;;;;;7.45;4.38;;;;;;;18.46;100.00;-24331.16;5067009;28;20197;-55
2022/06/07 03:26:08;;;;;;;7.75;5.00;;;;;;;18.36;100.00;-24328.38;5066145;28;20235;-58
2022/06/07 03:29:01;;;;;;;8.15;4.53;;;;;;;18.38;100.00;-24328.94;5066201;28;20281;-58
2022/06/07 03:31:28;;;;;;;7.40;4.93;;;;;;;18.11;100.00;-24321.41;5060153;28;20181;-58
2022/06/07 03:33:54;;;;;;;6.45;4.60;;;;;;;18.37;100.00;-24328.66;5064487;28;20182;-57
2022/06/07 03:36:25;;;;;;;7.50;5.30;;;;;;;18.56;100.00;-24333.66;5064145;28;21068;-56
2022/06/07 03:38:52;;;;;;;9.23;4.95;;;;;;;18.56;100.00;-24333.81;5064997;28;20194;-57
2022/06/07 03:41:24;;;;;;;10.10;5.25;;;;;;;18.72;100.00;-24338.13;5063265;28;20231;-59
2022/06/07 03:43:50;;;;;;;7.93;4.82;;;;;;;18.77;100.00;-24339.53;5063858;28;21472;-54
2022/06/07 03:46:24;;;;;;;9.40;5.50;;;;;;;19.13;100.00;-24349.41;5063222;28;20185;-55
2022/06/07 03:48:50;;;;;;;7.28;4.85;;;;;;;19.01;100.00;-24346.19;5064632;28;20220;-58
2022/06/07 03:51:19;;;;;;;7.57;4.78;;;;;;;19.30;100.00;-24354.28;5062567;28;20209;-58
2022/06/07 03:53:45;;;;;;;7.55;4.93;;;;;;;19.32;100.00;-24354.81;5063126;28;20182;-59
2022/06/07 03:56:12;;;;;;;6.50;4.35;;;;;;;19.41;100.00;-24357.34;5061915;28;20641;-56
2022/06/07 03:58:38;;;;;;;7.47;4.97;;;;;;;19.19;100.00;-24351.22;5063508;28;20616;-56
2022/06/07 04:01:05;;;;;;;8.85;4.55;;;;;;;19.41;100.00;-24357.34;5064407;28;20652;-55
2022/06/07 04:03:31;;;;;;;10.23;4.57;;;;;;;19.21;100.00;-24351.75;5064114;28;20228;-57
2022/06/07 04:05:57;;;;;;;6.80;4.38;;;;;;;19.22;100.00;-24352.03;5065689;28;20263;-56
2022/06/07 04:08:25;;;;;;;6.93;4.40;;;;;;;19.58;100.00;-24361.78;5063407;28;20189;-56
2022/06/07 04:10:53;;;;;;;6.45;4.53;;;;;;;19.52;100.00;-24360.25;5063835;28;20220;-58
2022/06/07 04:13:22;;;;;;;7.35;4.72;;;;;;;19.48;100.00;-24359.00;5062940;28;20182;-56
2022/06/07 04:15:48;;;;;;;11.73;5.32;;;;;;;19.95;100.00;-24372.06;5066079;28;20227;-57
2022/06/07 04:18:14;;;;;;;6.88;5.03;;;;;;;20.07;100.00;-24375.41;5069203;28;20202;-57
2022/06/07 04:20:40;;;;;;;11.45;4.95;;;;;;;20.00;100.00;-24373.31;5069505;28;20651;-58
2022/06/07 04:23:08;;;;;;;10.63;5.40;;;;;;;20.92;100.00;-24398.72;5068116;28;20185;-56
2022/06/07 04:25:35;;;;;;;9.60;4.93;;;;;;;20.92;100.00;-24398.72;5069597;28;20178;-57
2022/06/07 04:28:01;;;;;;;8.88;5.22;;;;;;;20.99;100.00;-24400.66;5069063;28;20194;-56
2022/06/07 04:30:26;;;;;;;7.18;4.82;;;;;;;21.28;100.00;-24408.44;5058341;28;20189;-58
2022/06/07 04:32:52;;;;;;;7.78;4.85;;;;;;;21.02;100.00;-24401.50;5055937;28;20174;-58
2022/06/07 04:35:18;;;;;;;8.57;4.78;;;;;;;21.50;100.00;-24414.66;5055025;28;20174;-56
2022/06/07 04:37:48;;;;;;;8.68;4.78;;;;;;;21.62;100.00;-24417.84;5056048;28;20186;-57
2022/06/07 04:40:15;;;;;;;9.48;5.30;;;;;;;22.00;100.00;-24428.25;5057825;28;22107;-55
2022/06/07 04:42:41;;;;;;;7.70;5.10;;;;;;;21.93;100.00;-24426.31;5060075;28;20639;-57
2022/06/07 04:45:15;;;;;;;10.75;5.45;;;;;;;21.59;100.00;-24417.03;5055386;28;20228;-60
2022/06/07 04:47:46;;;;;;;8.77;5.30;;;;;;;22.38;100.00;-24438.75;5059517;28;20226;-58
2022/06/07 04:50:17;;;;;;;8.73;5.03;;;;;;;22.38;100.00;-24438.63;5059666;28;20181;-56
2022/06/07 04:52:45;;;;;;;11.98;5.35;;;;;;;22.06;100.00;-24429.78;5063641;28;20660;-58
2022/06/07 04:55:11;;;;;;;11.55;6.30;;;;;;;22.18;100.00;-24433.22;5059167;28;20189;-57
2022/06/07 04:57:37;;;;;;;13.40;5.72;;;;;;;22.34;100.00;-24437.53;5059929;28;20204;-58
2022/06/07 05:00:05;;;;;;;9.00;5.18;;;;;;;22.55;100.00;-24443.34;5059842;28;20205;-56
2022/06/07 05:02:31;;;;;;;10.38;6.45;;;;;;;22.62;100.00;-24445.13;5057597;28;20174;-59
2022/06/07 05:04:56;;;;;;;9.57;6.00;;;;;;;22.26;100.00;-24435.44;5060049;28;20186;-58
2022/06/07 05:07:21;;;;;;;10.00;5.25;;;;;;;22.28;100.00;-24435.88;5059989;28;20216;-58
2022/06/07 05:09:48;;;;;;;7.57;5.03;;;;;;;22.50;100.00;-24441.81;5058463;28;20562;-58
2022/06/07 05:12:14;;;;;;;7.45;5.00;;;;;;;22.57;100.00;-24443.75;5066056;28;20177;-61
2022/06/07 05:14:41;;;;;;;10.00;5.88;;;;;;;22.43;100.00;-24440.00;5066955;28;20255;-59
2022/06/07 05:17:06;;;;;;;13.02;5.53;;;;;;;22.88;100.00;-24452.47;5069350;28;20174;-57
2022/06/07 05:19:33;;;;;;;9.07;5.70;;;;;;;22.86;100.00;-24451.78;5065637;28;20216;-61
2022/06/07 05:22:00;;;;;;;12.00;6.05;;;;;;;23.32;100.00;-24464.34;5064394;28;20196;-56
2022/06/07 05:24:26;;;;;;;10.57;6.50;;;;;;;23.45;100.00;-24467.78;5070594;28;20178;-58
2022/06/07 05:26:57;;;;;;;8.52;5.78;;;;;;;24.13;100.00;-24486.56;5072950;28;20223;-57
2022/06/07 05:29:46;;;;;;;9.07;5.60;;;;;;;24.49;100.00;-24496.22;5073123;28;20189;-55
2022/06/07 05:32:11;;;;;;;8.35;5.90;;;;;;;24.55;100.00;-24497.88;5070413;28;20629;-59
2022/06/07 05:34:36;;;;;;;9.27;5.90;;;;;;;24.38;100.00;-24493.19;5072554;28;20320;-58
2022/06/07 05:37:02;;;;;;;9.43;5.72;;;;;;;24.43;100.00;-24494.56;5073076;28;20649;-58
2022/06/07 05:39:30;;;;;;;9.68;5.82;;;;;;;24.76;100.00;-24503.53;5072707;28;20214;-58
2022/06/07 05:41:56;;;;;;;12.27;5.68;;;;;;;24.39;100.00;-24493.59;5073993;28;20188;-60
2022/06/07 05:44:23;;;;;;;8.40;5.47;;;;;;;24.36;100.00;-24492.78;5072626;28;20269;-58
2022/06/07 05:46:48;;;;;;;8.95;5.43;;;;;;;23.98;100.00;-24482.44;5072776;28;20300;-58
2022/06/07 05:49:15;;;;;;;9.32;5.90;;;;;;;24.57;100.00;-24498.56;5071354;28;20181;-59
2022/06/07 05:51:41;;;;;;;11.73;5.15;;;;;;;24.60;100.00;-24499.38;5072559;28;20188;-57
2022/06/07 05:54:07;;;;;;;8.63;5.65;;;;;;;24.29;100.00;-24490.72;5072799;28;20170;-59
2022/06/07 05:56:33;;;;;;;8.48;5.60;;;;;;;24.74;100.00;-24502.97;5068387;28;22015;-58
2022/06/07 05:59:00;;;;;;;7.95;5.60;;;;;;;24.61;100.00;-24499.53;5072533;28;20198;-58
2022/06/07 06:01:27;;;;;;;7.88;5.50;;;;;;;24.56;100.00;-24498.28;5070891;28;20288;-58
2022/06/07 06:03:55;;;;;;;7.28;5.32;;;;;;;24.72;100.00;-24502.56;5071979;28;20261;-60
2022/06/07 06:06:21;;;;;;;8.00;5.18;;;;;;;24.69;100.00;-24501.59;5072294;28;20178;-59
2022/06/07 06:11:32;;;;;;;8.63;4.88;;;;;;;24.43;100.00;-24494.56;5071768;28;20204;-59
2022/06/07 06:13:58;;;;;;;6.72;4.60;;;;;;;24.42;100.00;-24494.44;5072704;28;20637;-57
2022/06/07 06:16:24;;;;;;;8.90;5.57;;;;;;;24.69;100.00;-24501.72;5073106;28;20178;-57
2022/06/07 06:18:53;;;;;;;8.00;4.80;;;;;;;24.61;100.00;-24499.66;5072617;28;20273;-58
2022/06/07 06:21:21;;;;;;;9.48;5.80;;;;;;;24.87;100.00;-24506.56;5074109;28;20265;-60
2022/06/07 06:23:46;;;;;;;8.90;6.30;;;;;;;24.91;100.00;-24507.78;5061815;28;20312;-59
2022/06/07 06:26:15;;;;;;;9.13;5.35;;;;;;;24.94;100.00;-24508.63;5054686;28;20212;-58
2022/06/07 06:28:42;;;;;;;5.80;4.13;;;;;;;25.28;100.00;-24517.84;5069313;28;20621;-58
2022/06/07 06:31:09;;;;;;;6.03;3.88;;;;;;;25.59;100.00;-24526.09;5074029;28;20186;-58
2022/06/07 06:33:45;;;;;;;4.80;3.83;;;;;;;26.02;100.00;-24537.94;5064288;28;20179;-57
2022/06/07 06:36:13;;;;;;;6.72;4.53;;;;;;;25.63;100.00;-24527.34;5054517;28;20265;-56
2022/06/07 06:38:38;;;;;;;7.70;4.70;;;;;;;26.04;100.00;-24538.47;5070009;28;20204;-60
2022/06/07 06:41:19;;;;;;;6.32;4.72;;;;;;;25.85;100.00;-24533.38;5073019;28;20256;-57
2022/06/07 06:43:44;;;;;;;4.95;3.78;;;;;;;25.91;100.00;-24534.91;5066050;28;20177;-59
2022/06/07 06:46:14;;;;;;;5.28;3.80;;;;;;;25.97;100.00;-24536.41;5071499;28;20181;-60
2022/06/07 06:48:40;;;;;;;6.00;3.80;;;;;;;25.85;100.00;-24533.38;5069701;28;20698;-59
2022/06/07 06:51:11;;;;;;;5.32;3.75;;;;;;;25.67;100.00;-24528.44;5059518;28;20237;-55
2022/06/07 06:53:38;;;;;;;5.18;3.88;;;;;;;25.78;100.00;-24531.31;5072856;28;20727;-60
2022/06/07 06:56:04;;;;;;;6.88;3.42;;;;;;;25.91;100.00;-24535.03;5072999;28;20178;-61
2022/06/07 06:58:30;;;;;;;4.18;3.20;;;;;;;25.86;100.00;-24533.66;5064210;28;20585;-56
2022/06/07 07:01:08;;;;;;;4.50;3.20;;;;;;;25.46;100.00;-24522.66;5052993;28;20615;-56
2022/06/07 07:03:35;;;;;;;3.88;2.95;;;;;;;25.49;100.00;-24523.63;5068907;28;20166;-56
2022/06/07 07:06:02;;;;;;;3.47;2.90;;;;;;;25.06;100.00;-24511.91;5071672;28;20259;-57
2022/06/07 07:08:28;;;;;;;6.18;3.13;;;;;;;25.53;96.78;-24524.72;5070692;28;20232;-58
2022/06/07 07:11:17;;;;;;;4.28;2.90;;;;;;;25.13;97.54;-24513.72;5071877;28;20197;-59
2022/06/07 07:13:43;;;;;;;4.47;3.22;;;;;;;25.04;95.81;-24511.25;5070774;28;20195;-59
2022/06/07 07:16:13;;;;;;;3.30;2.58;;;;;;;24.89;100.00;-24507.09;5071402;28;20582;-56
2022/06/07 07:18:39;;;;;;;5.63;2.78;;;;;;;24.63;100.00;-24500.22;5071589;28;20247;-56
2022/06/07 07:21:33;;;;;;;4.15;2.67;;;;;;;25.34;99.46;-24519.34;5071762;28;20185;-58
2022/06/07 07:24:00;;;;;;;5.68;3.30;;;;;;;25.19;98.35;-24515.38;5069979;28;20635;-58
2022/06/07 07:26:28;;;;;;;4.63;3.03;;;;;;;25.20;94.23;-24515.63;5071485;28;20664;-56
2022/06/07 07:28:53;;;;;;;6.07;3.08;;;;;;;24.88;100.00;-24506.81;5071532;28;20182;-56
2022/06/07 07:31:24;;;;;;;7.45;3.40;;;;;;;24.69;100.00;-24501.59;5070734;28;20166;-56
2022/06/07 07:33:51;;;;;;;3.45;2.97;;;;;;;24.37;100.00;-24492.91;5069560;28;20186;-58
2022/06/07 07:36:17;;;;;;;4.63;3.20;;;;;;;24.95;100.00;-24508.91;5071118;28;20181;-60
2022/06/07 07:38:42;;;;;;;5.68;2.90;;;;;;;24.77;100.00;-24503.94;5072862;28;20294;-58
2022/06/07 07:41:25;;;;;;;5.75;3.60;;;;;;;25.05;100.00;-24511.50;5070971;28;20505;-58
2022/06/07 07:43:52;;;;;;;4.88;3.70;;;;;;;25.61;98.25;-24526.66;5064881;28;20663;-59
2022/06/07 07:46:20;;;;;;;6.32;3.50;;;;;;;25.84;93.25;-24533.13;5070545;28;20183;-60
2022/06/07 07:48:46;;;;;;;4.75;3.42;;;;;;;25.65;93.07;-24527.88;5071013;28;20707;-57
2022/06/07 07:51:27;;;;;;;4.93;3.50;;;;;;;25.90;97.63;-24534.75;5070249;28;20178;-58
2022/06/07 07:53:53;;;;;;;4.88;3.35;;;;;;;25.88;96.73;-24534.22;5069410;28;20227;-56
2022/06/07 07:56:20;;;;;;;5.47;3.53;;;;;;;25.84;98.16;-24533.13;5070725;28;20694;-59
2022/06/07 07:58:46;;;;;;;6.22;3.53;;;;;;;25.30;96.58;-24518.25;5070583;28;20235;-57
2022/06/07 08:01:14;;;;;;;3.70;3.30;;;;;;;25.71;100.00;-24529.53;5070367;28;20205;-57
2022/06/07 08:03:41;;;;;;;4.65;3.45;;;;;;;25.33;95.12;-24519.22;5070735;28;20173;-60
2022/06/07 08:06:17;;;;;;;4.18;3.55;;;;;;;25.55;92.68;-24525.00;5071581;28;20266;-56
2022/06/07 08:08:43;;;;;;;5.25;3.67;;;;;;;25.99;93.60;-24537.09;5069765;28;20176;-56
2022/06/07 08:11:09;;;;;;;6.03;3.75;;;;;;;26.13;92.28;-24540.94;5070518;28;20193;-60
2022/06/07 08:13:34;;;;;;;5.28;3.40;;;;;;;26.11;89.18;-24540.41;5070274;28;20556;-60
2022/06/07 08:16:00;;;;;;;5.15;3.40;;;;;;;26.10;95.66;-24539.97;5070645;28;20564;-55
2022/06/07 08:18:26;;;;;;;5.90;3.30;;;;;;;26.35;86.79;-24546.84;5069572;28;20583;-58
2022/06/07 08:20:58;;;;;;;4.70;3.20;;;;;;;26.80;87.89;-24559.06;5070569;28;20280;-59
2022/06/07 08:23:25;;;;;;;3.78;3.28;;;;;;;26.75;90.75;-24557.69;5070441;28;20184;-57
2022/06/07 08:25:50;;;;;;;5.03;3.35;;;;;;;26.95;85.42;-24563.19;5070930;28;20195;-58
2022/06/07 08:28:16;;;;;;;4.38;3.10;;;;;;;26.52;83.93;-24551.38;5071595;28;20185;-57
2022/06/07 08:30:48;;;;;;;4.47;3.40;;;;;;;26.76;82.03;-24557.97;5070508;28;20553;-57
2022/06/07 08:38:43;;;;;;;4.25;3.33;;;;;;;27.10;79.76;-24567.16;5069273;28;20670;-58
2022/06/07 08:41:22;;;;;;;3.53;2.83;;;;;;;27.09;80.00;-24566.91;5070519;28;20650;-59
2022/06/07 08:43:48;;;;;;;4.45;2.67;;;;;;;26.79;78.46;-24558.78;5070324;28;20177;-59
2022/06/07 08:46:16;;;;;;;3.55;2.70;;;;;;;26.81;76.60;-24559.50;5069688;28;20178;-58
2022/06/07 08:48:43;;;;;;;3.55;2.92;;;;;;;27.31;74.86;-24572.94;5068813;28;20252;-60
2022/06/07 08:51:17;;;;;;;2.80;2.35;;;;;;;27.36;72.99;-24574.31;5070052;28;20544;-58
2022/06/07 08:53:50;;;;;;;3.78;2.85;;;;;;;27.40;75.48;-24575.41;5068047;28;20188;-59
2022/06/07 08:56:20;;;;;;;3.28;2.70;;;;;;;27.34;74.08;-24573.63;5069579;28;20181;-59
2022/06/07 08:58:49;;;;;;;6.78;2.60;;;;;;;27.74;72.52;-24584.59;5069511;28;20193;-58
2022/06/07 09:01:40;;;;;;;3.15;2.60;;;;;;;27.72;69.91;-24584.03;5068386;28;20182;-59
2022/06/07 09:04:21;;;;;;;3.35;2.58;;;;;;;27.78;68.03;-24585.69;5066022;28;20186;-58
2022/06/07 09:06:52;;;;;;;3.22;2.60;;;;;;;27.81;69.34;-24586.50;5069656;28;20237;-57
2022/06/07 09:09:20;;;;;;;4.22;2.78;;;;;;;27.43;69.82;-24576.06;5069150;28;20178;-59
2022/06/07 09:12:10;;;;;;;3.90;2.75;;;;;;;27.85;73.34;-24587.59;5069702;28;20177;-59
2022/06/07 09:14:44;;;;;;;4.07;2.70;;;;;;;27.72;68.64;-24584.03;5069352;28;20231;-60
2022/06/07 09:17:18;;;;;;;3.42;2.50;;;;;;;27.53;69.55;-24578.81;5065582;28;20184;-60
2022/06/07 09:19:46;;;;;;;4.03;3.00;;;;;;;27.87;70.33;-24588.13;5069123;28;20197;-55
2022/06/07 09:22:25;;;;;;;3.50;2.80;;;;;;;28.05;68.75;-24593.06;5069416;28;20181;-58
2022/06/07 09:25:26;;;;;;;5.15;3.30;;;;;;;28.48;70.39;-24604.69;5067670;28;20177;-58
2022/06/07 09:27:53;;;;;;;2.88;2.42;;;;;;;28.52;66.52;-24605.66;5057181;28;20186;-58
2022/06/07 09:30:40;;;;;;;3.55;2.63;;;;;;;28.38;66.52;-24601.84;5069351;28;20178;-56
2022/06/07 09:33:20;;;;;;;3.08;2.38;;;;;;;28.62;65.30;-24608.41;5065319;28;20815;-56
2022/06/07 09:35:47;;;;;;;3.22;2.40;;;;;;;28.61;66.59;-24607.97;5068168;28;20243;-56
2022/06/07 09:38:36;;;;;;;3.00;2.42;;;;;;;28.39;70.30;-24602.25;5069258;28;20561;-60
2022/06/07 09:41:36;;;;;;;3.53;2.65;;;;;;;28.31;65.77;-24599.91;5068466;28;20190;-57
2022/06/07 09:44:24;;;;;;;3.10;2.42;;;;;;;28.84;66.06;-24614.41;5069600;28;20199;-57
2022/06/07 09:47:02;;;;;;;3.25;2.63;;;;;;;29.04;62.19;-24619.59;5067128;28;20585;-57
2022/06/07 09:49:32;;;;;;;3.05;2.55;;;;;;;28.84;61.81;-24614.28;5069028;28;20767;-59
2022/06/07 09:52:26;;;;;;;5.43;2.40;;;;;;;29.16;63.58;-24622.88;5069707;28;20174;-59
2022/06/07 09:55:18;;;;;;;3.28;2.60;;;;;;;29.56;61.02;-24633.81;5067490;28;20190;-60
2022/06/07 09:58:00;;;;;;;2.67;2.47;;;;;;;29.63;58.77;-24635.72;5070066;28;20276;-60
2022/06/07 10:00:53;;;;;;;3.47;2.78;;;;;;;29.03;60.38;-24619.34;5072486;28;20177;-57
2022/06/07 10:03:31;;;;;;;3.70;2.50;;;;;;;29.58;62.66;-24634.34;5070344;28;20169;-58
2022/06/07 10:06:26;;;;;;;3.05;2.50;;;;;;;29.35;59.11;-24628.22;5071642;28;20644;-58
2022/06/07 10:09:04;;;;;;;2.85;2.38;;;;;;;29.12;61.35;-24621.94;5071083;28;20177;-58
2022/06/07 10:11:41;;;;;;;3.30;2.60;;;;;;;29.20;62.21;-24624.13;5072301;28;20216;-59
2022/06/07 10:14:37;;;;;;;3.13;2.53;;;;;;;29.16;60.45;-24623.03;5069175;28;20193;-55
2022/06/07 10:17:21;;;;;;;3.17;2.50;;;;;;;29.07;61.53;-24620.44;5072873;28;20177;-57
2022/06/07 10:19:55;;;;;;;3.10;2.42;;;;;;;29.57;60.25;-24633.94;5072233;28;20258;-56
2022/06/07 10:22:36;;;;;;;2.75;2.35;;;;;;;29.28;57.72;-24626.28;5072228;28;20189;-57
2022/06/07 10:25:04;;;;;;;3.70;2.60;;;;;;;29.24;59.00;-24625.06;5071572;28;20180;-58
2022/06/07 10:27:39;;;;;;;3.70;2.80;;;;;;;28.91;61.67;-24616.19;5072151;28;20243;-59
2022/06/07 10:30:15;;;;;;;3.70;2.60;;;;;;;29.47;60.50;-24631.34;5072591;28;20708;-56
2022/06/07 10:33:38;;;;;;;3.15;2.63;;;;;;;29.80;56.43;-24640.34;5071303;28;20252;-58
2022/06/07 10:36:31;;;;;;;2.72;2.38;;;;;;;29.64;55.74;-24636.00;5030006;28;20190;-58
2022/06/07 10:39:15;;;;;;;3.35;2.67;;;;;;;29.11;57.21;-24621.66;5029575;28;20816;-58
2022/06/07 10:42:13;;;;;;;3.10;2.70;;;;;;;29.13;62.55;-24622.06;5059293;28;20197;-58
2022/06/07 10:44:47;;;;;;;3.10;2.58;;;;;;;29.08;60.13;-24620.69;5072842;28;20173;-55
2022/06/07 10:47:40;;;;;;;3.47;2.42;;;;;;;29.59;61.53;-24634.63;5068956;28;20311;-57
2022/06/07 10:50:20;;;;;;;2.72;2.38;;;;;;;29.86;60.15;-24641.84;5068778;28;20256;-60
2022/06/07 10:52:59;;;;;;;2.90;2.40;;;;;;;29.99;60.10;-24645.28;5071927;28;20200;-59
2022/06/07 10:55:45;;;;;;;3.13;2.60;;;;;;;29.68;58.05;-24637.09;5071610;28;20166;-60
2022/06/07 10:58:39;;;;;;;3.05;2.50;;;;;;;30.16;55.47;-24649.91;5068634;28;20181;-59
2022/06/07 11:01:15;;;;;;;4.00;2.75;;;;;;;30.48;57.96;-24658.63;5068443;28;20216;-58
2022/06/07 11:03:52;;;;;;;3.88;2.90;;;;;;;31.00;53.39;-24672.53;5070787;28;20169;-56
2022/06/07 11:09:47;;;;;;;3.10;2.60;;;;;;;30.05;55.54;-24646.91;5070759;28;20289;-57
2022/06/07 11:12:27;;;;;;;3.75;2.72;;;;;;;29.78;56.22;-24639.81;5068475;28;20169;-57
2022/06/07 11:15:04;;;;;;;3.47;2.80;;;;;;;30.22;52.10;-24651.69;5070388;28;20177;-56
2022/06/07 11:17:47;;;;;;;4.88;2.83;;;;;;;29.91;51.45;-24643.09;5071301;28;20209;-58
2022/06/07 11:20:24;;;;;;;3.75;2.80;;;;;;;29.89;52.08;-24642.53;5068317;28;20244;-57
2022/06/07 11:22:52;;;;;;;3.13;2.65;;;;;;;30.28;52.35;-24653.31;5071439;28;20184;-57
2022/06/07 11:25:36;;;;;;;3.80;3.10;;;;;;;29.87;53.32;-24642.00;5070675;28;20173;-58
2022/06/07 11:28:24;;;;;;;6.22;3.00;;;;;;;29.70;59.60;-24637.63;5070812;28;20180;-61
2022/06/07 11:30:53;;;;;;;3.10;2.50;;;;;;;29.82;54.46;-24640.78;5070919;28;20561;-55
2022/06/07 11:33:34;;;;;;;3.75;2.78;;;;;;;30.02;53.32;-24646.22;5070688;28;20706;-56
2022/06/07 11:36:20;;;;;;;3.72;2.70;;;;;;;30.10;53.10;-24648.28;5070772;28;20181;-58
2022/06/07 11:39:00;;;;;;;3.53;3.10;;;;;;;29.58;65.30;-24634.22;5070263;28;20201;-59
2022/06/07 11:41:37;;;;;;;3.03;2.47;;;;;;;29.20;56.46;-24624.13;5070210;28;20176;-61
2022/06/07 11:44:09;;;;;;;4.07;3.15;;;;;;;29.24;61.97;-24625.06;5071619;28;20181;-58
2022/06/07 11:46:34;;;;;;;3.83;2.90;;;;;;;29.65;56.96;-24636.13;5070948;28;20235;-57
2022/06/07 11:49:19;;;;;;;3.83;2.95;;;;;;;30.11;53.94;-24648.69;5072034;28;20229;-61
2022/06/07 11:51:54;;;;;;;4.65;3.38;;;;;;;30.37;57.46;-24655.63;5070889;28;20196;-59
2022/06/07 11:54:30;;;;;;;3.35;2.63;;;;;;;30.77;52.58;-24666.25;5070232;28;20177;-58
2022/06/07 11:57:00;;;;;;;3.08;2.65;;;;;;;30.52;52.27;-24659.59;5068495;28;20184;-61